sensor_id;sensor_type;location;lat;lon;timestamp;P1;durP1;ratioP1;P2;durP2;ratioP2
77573;SDS011;66710;48.868;9.080;2023-05-10T00:00:56;1.83;;;0.20;;
77573;SDS011;66710;48.868;9.080;2023-05-10T00:03:22;0.40;;;0.40;;
77573;SDS011;66710;48.868;9.080;2023-05-10T00:05:47;0.10;;;0.10;;
77573;SDS011;66710;48.868;9.080;2023-05-10T00:08:12;1.23;;;0.20;;
77573;SDS011;66710;48.868;9.080;2023-05-10T00:10:38;0.98;;;0.38;;
77573;SDS011;66710;48.868;9.080;2023-05-10T00:13:03;1.05;;;0.40;;
77573;SDS011;66710;48.868;9.080;2023-05-10T00:15:28;0.10;;;0.10;;
77573;SDS011;66710;48.868;9.080;2023-05-10T00:17:55;0.47;;;0.30;;
77573;SDS011;66710;48.868;9.080;2023-05-10T00:20:21;0.32;;;0.30;;
77573;SDS011;66710;48.868;9.080;2023-05-10T00:22:46;2.03;;;0.50;;
77573;SDS011;66710;48.868;9.080;2023-05-10T00:25:12;0.35;;;0.35;;
77573;SDS011;66710;48.868;9.080;2023-05-10T00:27:37;1.55;;;0.25;;
77573;SDS011;66710;48.868;9.080;2023-05-10T00:30:03;1.10;;;0.40;;
77573;SDS011;66710;48.868;9.080;2023-05-10T00:32:28;0.38;;;0.38;;
77573;SDS011;66710;48.868;9.080;2023-05-10T00:34:54;0.35;;;0.35;;
77573;SDS011;66710;48.868;9.080;2023-05-10T00:37:19;0.20;;;0.20;;
77573;SDS011;66710;48.868;9.080;2023-05-10T00:39:45;0.40;;;0.30;;
77573;SDS011;66710;48.868;9.080;2023-05-10T00:42:10;0.98;;;0.52;;
77573;SDS011;66710;48.868;9.080;2023-05-10T00:44:35;0.45;;;0.40;;
77573;SDS011;66710;48.868;9.080;2023-05-10T00:47:02;3.75;;;0.30;;
77573;SDS011;66710;48.868;9.080;2023-05-10T00:49:27;1.13;;;0.55;;
77573;SDS011;66710;48.868;9.080;2023-05-10T00:51:53;0.63;;;0.35;;
77573;SDS011;66710;48.868;9.080;2023-05-10T00:54:19;0.50;;;0.50;;
77573;SDS011;66710;48.868;9.080;2023-05-10T00:56:45;1.25;;;0.60;;
77573;SDS011;66710;48.868;9.080;2023-05-10T00:59:14;0.47;;;0.47;;
77573;SDS011;66710;48.868;9.080;2023-05-10T01:01:42;0.65;;;0.55;;
77573;SDS011;66710;48.868;9.080;2023-05-10T01:04:08;0.65;;;0.65;;
77573;SDS011;66710;48.868;9.080;2023-05-10T01:06:35;1.15;;;0.73;;
77573;SDS011;66710;48.868;9.080;2023-05-10T01:09:00;2.17;;;0.90;;
77573;SDS011;66710;48.868;9.080;2023-05-10T01:11:25;1.83;;;0.82;;
77573;SDS011;66710;48.868;9.080;2023-05-10T01:13:52;1.10;;;1.00;;
77573;SDS011;66710;48.868;9.080;2023-05-10T01:16:21;1.02;;;0.77;;
77573;SDS011;66710;48.868;9.080;2023-05-10T01:18:47;1.10;;;1.00;;
77573;SDS011;66710;48.868;9.080;2023-05-10T01:21:33;1.45;;;0.85;;
77573;SDS011;66710;48.868;9.080;2023-05-10T01:34:11;1.48;;;1.27;;
77573;SDS011;66710;48.868;9.080;2023-05-10T01:36:32;1.60;;;0.90;;
77573;SDS011;66710;48.868;9.080;2023-05-10T01:39:23;1.90;;;1.20;;
77573;SDS011;66710;48.868;9.080;2023-05-10T01:41:59;1.67;;;1.30;;
77573;SDS011;66710;48.868;9.080;2023-05-10T01:47:17;2.22;;;1.42;;
77573;SDS011;66710;48.868;9.080;2023-05-10T01:49:49;1.23;;;0.93;;
77573;SDS011;66710;48.868;9.080;2023-05-10T01:52:18;1.83;;;1.30;;
77573;SDS011;66710;48.868;9.080;2023-05-10T01:54:54;1.85;;;1.20;;
77573;SDS011;66710;48.868;9.080;2023-05-10T01:57:25;2.28;;;1.27;;
77573;SDS011;66710;48.868;9.080;2023-05-10T01:59:52;3.20;;;1.50;;
77573;SDS011;66710;48.868;9.080;2023-05-10T02:02:20;2.47;;;1.30;;
77573;SDS011;66710;48.868;9.080;2023-05-10T02:04:46;3.00;;;1.40;;
77573;SDS011;66710;48.868;9.080;2023-05-10T02:07:14;3.95;;;1.67;;
77573;SDS011;66710;48.868;9.080;2023-05-10T02:09:40;1.83;;;1.30;;
77573;SDS011;66710;48.868;9.080;2023-05-10T02:12:09;2.25;;;1.48;;
77573;SDS011;66710;48.868;9.080;2023-05-10T02:14:35;2.30;;;1.17;;
77573;SDS011;66710;48.868;9.080;2023-05-10T02:17:02;2.22;;;1.55;;
77573;SDS011;66710;48.868;9.080;2023-05-10T02:19:30;4.63;;;1.55;;
77573;SDS011;66710;48.868;9.080;2023-05-10T02:21:57;3.08;;;1.42;;
77573;SDS011;66710;48.868;9.080;2023-05-10T02:24:25;5.15;;;1.70;;
77573;SDS011;66710;48.868;9.080;2023-05-10T02:26:51;1.88;;;1.30;;
77573;SDS011;66710;48.868;9.080;2023-05-10T02:29:20;1.92;;;1.40;;
77573;SDS011;66710;48.868;9.080;2023-05-10T02:31:48;2.50;;;1.50;;
77573;SDS011;66710;48.868;9.080;2023-05-10T02:34:16;2.03;;;1.42;;
77573;SDS011;66710;48.868;9.080;2023-05-10T02:36:42;1.95;;;1.20;;
77573;SDS011;66710;48.868;9.080;2023-05-10T02:39:08;1.88;;;1.30;;
77573;SDS011;66710;48.868;9.080;2023-05-10T02:41:37;1.23;;;1.13;;
77573;SDS011;66710;48.868;9.080;2023-05-10T02:44:05;4.80;;;1.60;;
77573;SDS011;66710;48.868;9.080;2023-05-10T02:46:32;2.63;;;1.60;;
77573;SDS011;66710;48.868;9.080;2023-05-10T02:48:58;1.98;;;1.52;;
77573;SDS011;66710;48.868;9.080;2023-05-10T02:51:25;1.90;;;1.38;;
77573;SDS011;66710;48.868;9.080;2023-05-10T02:53:56;4.55;;;1.63;;
77573;SDS011;66710;48.868;9.080;2023-05-10T02:56:31;2.75;;;1.70;;
77573;SDS011;66710;48.868;9.080;2023-05-10T02:58:59;2.75;;;1.70;;
77573;SDS011;66710;48.868;9.080;2023-05-10T03:01:24;2.67;;;1.65;;
77573;SDS011;66710;48.868;9.080;2023-05-10T03:03:50;3.75;;;1.83;;
77573;SDS011;66710;48.868;9.080;2023-05-10T03:06:15;2.80;;;1.80;;
77573;SDS011;66710;48.868;9.080;2023-05-10T03:08:41;4.07;;;1.90;;
77573;SDS011;66710;48.868;9.080;2023-05-10T03:16:57;3.10;;;1.80;;
77573;SDS011;66710;48.868;9.080;2023-05-10T03:19:34;4.43;;;2.28;;
77573;SDS011;66710;48.868;9.080;2023-05-10T03:22:03;3.40;;;2.20;;
77573;SDS011;66710;48.868;9.080;2023-05-10T03:24:33;4.00;;;1.90;;
77573;SDS011;66710;48.868;9.080;2023-05-10T03:27:01;4.50;;;2.17;;
77573;SDS011;66710;48.868;9.080;2023-05-10T03:29:29;3.47;;;2.10;;
77573;SDS011;66710;48.868;9.080;2023-05-10T03:31:57;3.05;;;2.13;;
77573;SDS011;66710;48.868;9.080;2023-05-10T03:34:24;3.50;;;2.10;;
77573;SDS011;66710;48.868;9.080;2023-05-10T03:36:50;3.85;;;1.88;;
77573;SDS011;66710;48.868;9.080;2023-05-10T03:39:15;3.00;;;1.92;;
77573;SDS011;66710;48.868;9.080;2023-05-10T03:41:40;3.17;;;1.98;;
77573;SDS011;66710;48.868;9.080;2023-05-10T03:44:06;3.08;;;2.30;;
77573;SDS011;66710;48.868;9.080;2023-05-10T03:46:31;3.33;;;1.90;;
77573;SDS011;66710;48.868;9.080;2023-05-10T03:48:57;3.55;;;2.08;;
77573;SDS011;66710;48.868;9.080;2023-05-10T03:51:22;4.20;;;2.15;;
77573;SDS011;66710;48.868;9.080;2023-05-10T03:53:48;2.92;;;2.10;;
77573;SDS011;66710;48.868;9.080;2023-05-10T03:56:13;3.35;;;2.00;;
77573;SDS011;66710;48.868;9.080;2023-05-10T03:58:38;3.30;;;2.00;;
77573;SDS011;66710;48.868;9.080;2023-05-10T04:01:04;3.75;;;2.00;;
77573;SDS011;66710;48.868;9.080;2023-05-10T04:03:29;2.95;;;1.95;;
77573;SDS011;66710;48.868;9.080;2023-05-10T04:05:58;3.80;;;2.22;;
77573;SDS011;66710;48.868;9.080;2023-05-10T04:08:25;5.78;;;2.10;;
77573;SDS011;66710;48.868;9.080;2023-05-10T04:10:51;3.70;;;2.28;;
77573;SDS011;66710;48.868;9.080;2023-05-10T04:13:16;5.43;;;2.20;;
77573;SDS011;66710;48.868;9.080;2023-05-10T04:15:42;3.50;;;2.30;;
77573;SDS011;66710;48.868;9.080;2023-05-10T04:18:08;3.83;;;2.20;;
77573;SDS011;66710;48.868;9.080;2023-05-10T04:20:33;3.03;;;2.00;;
77573;SDS011;66710;48.868;9.080;2023-05-10T04:22:59;2.78;;;1.77;;
77573;SDS011;66710;48.868;9.080;2023-05-10T04:25:24;3.30;;;1.95;;
77573;SDS011;66710;48.868;9.080;2023-05-10T04:27:50;3.67;;;1.90;;
77573;SDS011;66710;48.868;9.080;2023-05-10T04:30:16;3.05;;;1.70;;
77573;SDS011;66710;48.868;9.080;2023-05-10T04:32:42;2.65;;;1.63;;
77573;SDS011;66710;48.868;9.080;2023-05-10T04:35:07;2.88;;;1.75;;
77573;SDS011;66710;48.868;9.080;2023-05-10T04:37:34;5.45;;;2.20;;
77573;SDS011;66710;48.868;9.080;2023-05-10T04:39:59;3.47;;;1.80;;
77573;SDS011;66710;48.868;9.080;2023-05-10T04:42:25;2.83;;;1.88;;
77573;SDS011;66710;48.868;9.080;2023-05-10T04:44:50;3.35;;;2.00;;
77573;SDS011;66710;48.868;9.080;2023-05-10T04:47:16;3.83;;;2.03;;
77573;SDS011;66710;48.868;9.080;2023-05-10T04:49:42;3.20;;;1.70;;
77573;SDS011;66710;48.868;9.080;2023-05-10T04:52:07;3.33;;;1.95;;
77573;SDS011;66710;48.868;9.080;2023-05-10T04:54:32;3.40;;;2.30;;
77573;SDS011;66710;48.868;9.080;2023-05-10T04:56:58;5.30;;;2.00;;
77573;SDS011;66710;48.868;9.080;2023-05-10T04:59:23;3.72;;;2.30;;
77573;SDS011;66710;48.868;9.080;2023-05-10T05:01:49;4.50;;;1.90;;
77573;SDS011;66710;48.868;9.080;2023-05-10T05:04:14;3.67;;;1.80;;
77573;SDS011;66710;48.868;9.080;2023-05-10T05:06:39;4.25;;;2.05;;
77573;SDS011;66710;48.868;9.080;2023-05-10T05:09:05;3.90;;;2.00;;
77573;SDS011;66710;48.868;9.080;2023-05-10T05:11:30;5.18;;;2.10;;
77573;SDS011;66710;48.868;9.080;2023-05-10T05:13:55;3.50;;;2.05;;
77573;SDS011;66710;48.868;9.080;2023-05-10T05:16:21;6.47;;;2.20;;
77573;SDS011;66710;48.868;9.080;2023-05-10T05:18:46;3.22;;;2.00;;
77573;SDS011;66710;48.868;9.080;2023-05-10T05:21:18;4.30;;;2.17;;
77573;SDS011;66710;48.868;9.080;2023-05-10T05:23:44;3.60;;;2.05;;
77573;SDS011;66710;48.868;9.080;2023-05-10T05:26:10;4.25;;;2.10;;
77573;SDS011;66710;48.868;9.080;2023-05-10T05:28:36;4.68;;;2.35;;
77573;SDS011;66710;48.868;9.080;2023-05-10T05:31:02;5.35;;;2.50;;
77573;SDS011;66710;48.868;9.080;2023-05-10T05:33:28;4.78;;;2.40;;
77573;SDS011;66710;48.868;9.080;2023-05-10T05:35:54;3.22;;;2.20;;
77573;SDS011;66710;48.868;9.080;2023-05-10T05:38:20;5.00;;;2.75;;
77573;SDS011;66710;48.868;9.080;2023-05-10T05:40:45;3.65;;;2.47;;
77573;SDS011;66710;48.868;9.080;2023-05-10T05:43:11;4.00;;;2.70;;
77573;SDS011;66710;48.868;9.080;2023-05-10T05:45:36;4.10;;;2.50;;
77573;SDS011;66710;48.868;9.080;2023-05-10T05:48:01;4.25;;;2.50;;
77573;SDS011;66710;48.868;9.080;2023-05-10T05:50:27;4.18;;;2.60;;
77573;SDS011;66710;48.868;9.080;2023-05-10T05:52:52;4.88;;;2.60;;
77573;SDS011;66710;48.868;9.080;2023-05-10T05:55:17;5.72;;;3.38;;
77573;SDS011;66710;48.868;9.080;2023-05-10T05:57:43;3.63;;;2.42;;
77573;SDS011;66710;48.868;9.080;2023-05-10T06:00:08;4.53;;;2.63;;
77573;SDS011;66710;48.868;9.080;2023-05-10T06:02:34;5.13;;;2.70;;
77573;SDS011;66710;48.868;9.080;2023-05-10T06:04:59;4.82;;;2.67;;
77573;SDS011;66710;48.868;9.080;2023-05-10T06:07:25;5.30;;;2.60;;
77573;SDS011;66710;48.868;9.080;2023-05-10T06:09:50;3.75;;;2.13;;
77573;SDS011;66710;48.868;9.080;2023-05-10T06:12:16;3.90;;;2.50;;
77573;SDS011;66710;48.868;9.080;2023-05-10T06:14:41;3.90;;;2.45;;
77573;SDS011;66710;48.868;9.080;2023-05-10T06:17:07;3.97;;;2.50;;
77573;SDS011;66710;48.868;9.080;2023-05-10T06:19:32;4.25;;;2.65;;
77573;SDS011;66710;48.868;9.080;2023-05-10T06:21:57;4.50;;;2.58;;
77573;SDS011;66710;48.868;9.080;2023-05-10T06:24:23;3.30;;;2.28;;
77573;SDS011;66710;48.868;9.080;2023-05-10T06:26:48;4.05;;;2.50;;
77573;SDS011;66710;48.868;9.080;2023-05-10T06:29:14;3.72;;;2.20;;
77573;SDS011;66710;48.868;9.080;2023-05-10T06:31:40;3.47;;;2.30;;
77573;SDS011;66710;48.868;9.080;2023-05-10T06:34:05;3.72;;;1.95;;
77573;SDS011;66710;48.868;9.080;2023-05-10T06:36:32;2.78;;;1.52;;
77573;SDS011;66710;48.868;9.080;2023-05-10T06:38:58;2.47;;;1.73;;
77573;SDS011;66710;48.868;9.080;2023-05-10T06:41:23;4.60;;;2.10;;
77573;SDS011;66710;48.868;9.080;2023-05-10T06:43:49;4.78;;;2.05;;
77573;SDS011;66710;48.868;9.080;2023-05-10T06:46:14;3.70;;;1.95;;
77573;SDS011;66710;48.868;9.080;2023-05-10T06:48:40;3.95;;;1.60;;
77573;SDS011;66710;48.868;9.080;2023-05-10T06:51:05;3.40;;;1.85;;
77573;SDS011;66710;48.868;9.080;2023-05-10T06:53:30;5.20;;;1.90;;
77573;SDS011;66710;48.868;9.080;2023-05-10T06:55:56;2.95;;;1.90;;
77573;SDS011;66710;48.868;9.080;2023-05-10T06:58:21;3.10;;;2.00;;
77573;SDS011;66710;48.868;9.080;2023-05-10T07:00:46;3.72;;;1.83;;
77573;SDS011;66710;48.868;9.080;2023-05-10T07:03:12;3.15;;;2.03;;
77573;SDS011;66710;48.868;9.080;2023-05-10T07:05:37;2.72;;;1.85;;
77573;SDS011;66710;48.868;9.080;2023-05-10T07:08:03;3.33;;;1.98;;
77573;SDS011;66710;48.868;9.080;2023-05-10T07:10:28;2.95;;;1.70;;
77573;SDS011;66710;48.868;9.080;2023-05-10T07:12:54;3.00;;;2.00;;
77573;SDS011;66710;48.868;9.080;2023-05-10T07:15:20;2.80;;;1.63;;
77573;SDS011;66710;48.868;9.080;2023-05-10T07:17:45;2.80;;;1.52;;
77573;SDS011;66710;48.868;9.080;2023-05-10T07:20:11;3.20;;;1.52;;
77573;SDS011;66710;48.868;9.080;2023-05-10T07:22:36;3.00;;;1.27;;
77573;SDS011;66710;48.868;9.080;2023-05-10T07:25:02;2.45;;;1.20;;
77573;SDS011;66710;48.868;9.080;2023-05-10T07:27:27;1.45;;;1.10;;
77573;SDS011;66710;48.868;9.080;2023-05-10T07:29:53;2.38;;;1.40;;
77573;SDS011;66710;48.868;9.080;2023-05-10T07:32:19;3.70;;;1.17;;
77573;SDS011;66710;48.868;9.080;2023-05-10T07:34:45;2.50;;;1.40;;
77573;SDS011;66710;48.868;9.080;2023-05-10T07:37:10;1.33;;;1.00;;
77573;SDS011;66710;48.868;9.080;2023-05-10T07:39:36;1.33;;;1.05;;
77573;SDS011;66710;48.868;9.080;2023-05-10T07:42:02;3.40;;;1.42;;
77573;SDS011;66710;48.868;9.080;2023-05-10T07:44:27;2.15;;;1.33;;
77573;SDS011;66710;48.868;9.080;2023-05-10T07:46:53;1.67;;;1.17;;
77573;SDS011;66710;48.868;9.080;2023-05-10T07:49:19;2.67;;;1.00;;
77573;SDS011;66710;48.868;9.080;2023-05-10T07:51:44;2.05;;;1.15;;
77573;SDS011;66710;48.868;9.080;2023-05-10T07:54:10;1.33;;;1.02;;
77573;SDS011;66710;48.868;9.080;2023-05-10T07:56:35;1.35;;;1.00;;
77573;SDS011;66710;48.868;9.080;2023-05-10T07:59:02;1.88;;;1.30;;
77573;SDS011;66710;48.868;9.080;2023-05-10T08:01:32;1.33;;;1.08;;
77573;SDS011;66710;48.868;9.080;2023-05-10T08:03:58;2.22;;;1.15;;
77573;SDS011;66710;48.868;9.080;2023-05-10T08:06:24;1.73;;;0.88;;
77573;SDS011;66710;48.868;9.080;2023-05-10T08:08:52;1.70;;;1.10;;
77573;SDS011;66710;48.868;9.080;2023-05-10T08:11:19;1.35;;;1.00;;
77573;SDS011;66710;48.868;9.080;2023-05-10T08:13:46;0.80;;;0.80;;
77573;SDS011;66710;48.868;9.080;2023-05-10T08:16:12;0.98;;;0.80;;
77573;SDS011;66710;48.868;9.080;2023-05-10T08:18:38;1.55;;;1.00;;
77573;SDS011;66710;48.868;9.080;2023-05-10T08:21:04;0.98;;;0.70;;
77573;SDS011;66710;48.868;9.080;2023-05-10T08:23:30;1.40;;;0.57;;
77573;SDS011;66710;48.868;9.080;2023-05-10T08:25:55;1.80;;;0.93;;
77573;SDS011;66710;48.868;9.080;2023-05-10T08:28:20;1.00;;;0.90;;
77573;SDS011;66710;48.868;9.080;2023-05-10T08:30:46;1.17;;;0.80;;
77573;SDS011;66710;48.868;9.080;2023-05-10T08:33:11;0.85;;;0.73;;
77573;SDS011;66710;48.868;9.080;2023-05-10T08:35:37;0.93;;;0.70;;
77573;SDS011;66710;48.868;9.080;2023-05-10T08:38:02;0.60;;;0.40;;
77573;SDS011;66710;48.868;9.080;2023-05-10T08:40:27;0.65;;;0.63;;
77573;SDS011;66710;48.868;9.080;2023-05-10T08:43:02;0.80;;;0.70;;
77573;SDS011;66710;48.868;9.080;2023-05-10T08:45:32;0.73;;;0.70;;
77573;SDS011;66710;48.868;9.080;2023-05-10T08:48:02;0.50;;;0.50;;
77573;SDS011;66710;48.868;9.080;2023-05-10T08:50:30;1.00;;;0.70;;
77573;SDS011;66710;48.868;9.080;2023-05-10T08:52:57;1.27;;;0.70;;
77573;SDS011;66710;48.868;9.080;2023-05-10T08:55:25;0.82;;;0.60;;
77573;SDS011;66710;48.868;9.080;2023-05-10T08:57:50;1.52;;;0.60;;
77573;SDS011;66710;48.868;9.080;2023-05-10T09:00:16;0.80;;;0.63;;
77573;SDS011;66710;48.868;9.080;2023-05-10T09:02:43;1.05;;;0.57;;
77573;SDS011;66710;48.868;9.080;2023-05-10T09:05:09;1.23;;;0.63;;
77573;SDS011;66710;48.868;9.080;2023-05-10T09:07:35;0.95;;;0.75;;
77573;SDS011;66710;48.868;9.080;2023-05-10T09:10:01;0.77;;;0.70;;
77573;SDS011;66710;48.868;9.080;2023-05-10T09:12:27;1.25;;;0.52;;
77573;SDS011;66710;48.868;9.080;2023-05-10T09:14:53;0.60;;;0.60;;
77573;SDS011;66710;48.868;9.080;2023-05-10T09:17:21;1.25;;;0.80;;
77573;SDS011;66710;48.868;9.080;2023-05-10T09:19:48;1.25;;;0.90;;
77573;SDS011;66710;48.868;9.080;2023-05-10T09:22:13;2.15;;;0.80;;
77573;SDS011;66710;48.868;9.080;2023-05-10T09:24:39;0.90;;;0.63;;
77573;SDS011;66710;48.868;9.080;2023-05-10T09:27:10;1.83;;;0.90;;
77573;SDS011;66710;48.868;9.080;2023-05-10T09:29:39;1.88;;;0.68;;
77573;SDS011;66710;48.868;9.080;2023-05-10T09:32:05;1.48;;;0.90;;
77573;SDS011;66710;48.868;9.080;2023-05-10T09:34:31;1.17;;;0.90;;
77573;SDS011;66710;48.868;9.080;2023-05-10T09:37:00;1.27;;;0.70;;
77573;SDS011;66710;48.868;9.080;2023-05-10T09:39:34;1.20;;;0.90;;
77573;SDS011;66710;48.868;9.080;2023-05-10T09:42:04;1.92;;;1.00;;
77573;SDS011;66710;48.868;9.080;2023-05-10T09:44:32;1.63;;;1.00;;
77573;SDS011;66710;48.868;9.080;2023-05-10T09:46:58;1.85;;;0.77;;
77573;SDS011;66710;48.868;9.080;2023-05-10T09:49:24;1.65;;;0.88;;
77573;SDS011;66710;48.868;9.080;2023-05-10T09:52:05;1.33;;;0.90;;
77573;SDS011;66710;48.868;9.080;2023-05-10T09:54:32;1.20;;;0.77;;
77573;SDS011;66710;48.868;9.080;2023-05-10T09:56:58;1.75;;;1.00;;
77573;SDS011;66710;48.868;9.080;2023-05-10T09:59:25;1.58;;;1.17;;
77573;SDS011;66710;48.868;9.080;2023-05-10T10:01:55;1.10;;;1.00;;
77573;SDS011;66710;48.868;9.080;2023-05-10T10:04:22;1.08;;;0.90;;
77573;SDS011;66710;48.868;9.080;2023-05-10T10:06:58;1.67;;;0.95;;
77573;SDS011;66710;48.868;9.080;2023-05-10T10:09:24;1.23;;;0.85;;
77573;SDS011;66710;48.868;9.080;2023-05-10T10:11:50;0.98;;;0.77;;
77573;SDS011;66710;48.868;9.080;2023-05-10T10:14:17;3.92;;;0.90;;
77573;SDS011;66710;48.868;9.080;2023-05-10T10:16:43;2.40;;;0.75;;
77573;SDS011;66710;48.868;9.080;2023-05-10T10:19:09;1.40;;;0.90;;
77573;SDS011;66710;48.868;9.080;2023-05-10T10:21:35;2.85;;;0.80;;
77573;SDS011;66710;48.868;9.080;2023-05-10T10:24:00;0.75;;;0.57;;
77573;SDS011;66710;48.868;9.080;2023-05-10T10:26:26;1.75;;;0.80;;
77573;SDS011;66710;48.868;9.080;2023-05-10T10:28:56;2.15;;;0.80;;
77573;SDS011;66710;48.868;9.080;2023-05-10T10:31:38;2.50;;;0.70;;
77573;SDS011;66710;48.868;9.080;2023-05-10T10:34:10;1.63;;;0.88;;
77573;SDS011;66710;48.868;9.080;2023-05-10T10:36:42;0.80;;;0.80;;
77573;SDS011;66710;48.868;9.080;2023-05-10T10:39:10;1.08;;;0.95;;
77573;SDS011;66710;48.868;9.080;2023-05-10T10:41:38;0.50;;;0.50;;
77573;SDS011;66710;48.868;9.080;2023-05-10T10:47:05;0.38;;;0.38;;
77573;SDS011;66710;48.868;9.080;2023-05-10T10:55:05;0.60;;;0.60;;
77573;SDS011;66710;48.868;9.080;2023-05-10T11:00:17;1.15;;;0.90;;
77573;SDS011;66710;48.868;9.080;2023-05-10T11:08:01;2.13;;;1.00;;
77573;SDS011;66710;48.868;9.080;2023-05-10T11:10:34;1.45;;;0.90;;
77573;SDS011;66710;48.868;9.080;2023-05-10T11:13:04;1.25;;;0.85;;
77573;SDS011;66710;48.868;9.080;2023-05-10T11:15:31;1.95;;;0.50;;
77573;SDS011;66710;48.868;9.080;2023-05-10T11:20:56;1.85;;;0.88;;
77573;SDS011;66710;48.868;9.080;2023-05-10T11:23:32;2.80;;;1.10;;
77573;SDS011;66710;48.868;9.080;2023-05-10T11:26:12;2.35;;;0.90;;
77573;SDS011;66710;48.868;9.080;2023-05-10T11:28:41;3.03;;;1.10;;
77573;SDS011;66710;48.868;9.080;2023-05-10T11:31:08;1.95;;;1.00;;
77573;SDS011;66710;48.868;9.080;2023-05-10T11:33:42;5.30;;;1.10;;
77573;SDS011;66710;48.868;9.080;2023-05-10T11:36:13;2.15;;;1.30;;
77573;SDS011;66710;48.868;9.080;2023-05-10T11:38:40;1.13;;;0.87;;
77573;SDS011;66710;48.868;9.080;2023-05-10T11:41:07;3.13;;;1.40;;
77573;SDS011;66710;48.868;9.080;2023-05-10T11:43:38;1.33;;;0.98;;
77573;SDS011;66710;48.868;9.080;2023-05-10T11:46:04;4.40;;;1.40;;
77573;SDS011;66710;48.868;9.080;2023-05-10T11:48:31;1.85;;;1.23;;
77573;SDS011;66710;48.868;9.080;2023-05-10T11:50:57;3.80;;;1.33;;
77573;SDS011;66710;48.868;9.080;2023-05-10T11:53:23;1.92;;;1.20;;
77573;SDS011;66710;48.868;9.080;2023-05-10T11:55:51;0.88;;;0.70;;
77573;SDS011;66710;48.868;9.080;2023-05-10T11:58:17;1.88;;;1.20;;
77573;SDS011;66710;48.868;9.080;2023-05-10T12:00:44;2.42;;;1.20;;
77573;SDS011;66710;48.868;9.080;2023-05-10T12:03:10;1.45;;;1.00;;
77573;SDS011;66710;48.868;9.080;2023-05-10T12:05:35;2.15;;;1.30;;
77573;SDS011;66710;48.868;9.080;2023-05-10T12:08:14;2.15;;;1.15;;
77573;SDS011;66710;48.868;9.080;2023-05-10T12:10:40;3.13;;;1.20;;
77573;SDS011;66710;48.868;9.080;2023-05-10T12:13:10;3.78;;;1.55;;
77573;SDS011;66710;48.868;9.080;2023-05-10T12:15:36;3.13;;;1.13;;
77573;SDS011;66710;48.868;9.080;2023-05-10T12:18:02;1.40;;;0.93;;
77573;SDS011;66710;48.868;9.080;2023-05-10T12:20:28;0.88;;;0.80;;
77573;SDS011;66710;48.868;9.080;2023-05-10T12:22:54;2.47;;;1.10;;
77573;SDS011;66710;48.868;9.080;2023-05-10T12:25:21;1.13;;;0.80;;
77573;SDS011;66710;48.868;9.080;2023-05-10T12:27:50;2.17;;;0.80;;
77573;SDS011;66710;48.868;9.080;2023-05-10T12:30:21;2.40;;;0.90;;
77573;SDS011;66710;48.868;9.080;2023-05-10T12:32:46;1.88;;;1.00;;
77573;SDS011;66710;48.868;9.080;2023-05-10T12:35:12;1.40;;;0.90;;
77573;SDS011;66710;48.868;9.080;2023-05-10T12:37:37;3.47;;;1.20;;
77573;SDS011;66710;48.868;9.080;2023-05-10T12:40:07;2.80;;;1.00;;
77573;SDS011;66710;48.868;9.080;2023-05-10T12:42:34;2.90;;;1.00;;
77573;SDS011;66710;48.868;9.080;2023-05-10T12:45:03;2.17;;;1.00;;
77573;SDS011;66710;48.868;9.080;2023-05-10T12:47:30;3.10;;;1.30;;
77573;SDS011;66710;48.868;9.080;2023-05-10T12:49:56;1.98;;;1.10;;
77573;SDS011;66710;48.868;9.080;2023-05-10T12:52:22;2.10;;;0.90;;
77573;SDS011;66710;48.868;9.080;2023-05-10T12:54:48;2.45;;;1.00;;
77573;SDS011;66710;48.868;9.080;2023-05-10T12:57:14;7.25;;;1.10;;
77573;SDS011;66710;48.868;9.080;2023-05-10T12:59:39;2.55;;;0.98;;
77573;SDS011;66710;48.868;9.080;2023-05-10T13:02:05;2.40;;;1.02;;
77573;SDS011;66710;48.868;9.080;2023-05-10T13:04:31;3.28;;;1.10;;
77573;SDS011;66710;48.868;9.080;2023-05-10T13:06:57;3.33;;;1.40;;
77573;SDS011;66710;48.868;9.080;2023-05-10T13:09:24;3.05;;;1.20;;
77573;SDS011;66710;48.868;9.080;2023-05-10T13:11:50;1.90;;;0.93;;
77573;SDS011;66710;48.868;9.080;2023-05-10T13:14:15;1.73;;;0.95;;
77573;SDS011;66710;48.868;9.080;2023-05-10T13:16:41;2.08;;;1.42;;
77573;SDS011;66710;48.868;9.080;2023-05-10T13:19:06;1.58;;;1.23;;
77573;SDS011;66710;48.868;9.080;2023-05-10T13:21:32;3.92;;;1.30;;
77573;SDS011;66710;48.868;9.080;2023-05-10T13:23:57;4.20;;;1.27;;
77573;SDS011;66710;48.868;9.080;2023-05-10T13:26:23;3.55;;;1.40;;
77573;SDS011;66710;48.868;9.080;2023-05-10T13:28:48;1.38;;;1.20;;
77573;SDS011;66710;48.868;9.080;2023-05-10T13:31:15;1.75;;;1.02;;
77573;SDS011;66710;48.868;9.080;2023-05-10T13:33:40;1.58;;;1.00;;
77573;SDS011;66710;48.868;9.080;2023-05-10T13:36:06;2.95;;;1.17;;
77573;SDS011;66710;48.868;9.080;2023-05-10T13:38:31;2.17;;;1.20;;
77573;SDS011;66710;48.868;9.080;2023-05-10T13:40:56;4.15;;;1.23;;
77573;SDS011;66710;48.868;9.080;2023-05-10T13:43:22;1.73;;;1.10;;
77573;SDS011;66710;48.868;9.080;2023-05-10T13:45:47;4.65;;;1.30;;
77573;SDS011;66710;48.868;9.080;2023-05-10T13:48:13;1.88;;;1.10;;
77573;SDS011;66710;48.868;9.080;2023-05-10T13:50:38;1.80;;;1.20;;
77573;SDS011;66710;48.868;9.080;2023-05-10T13:53:03;2.05;;;1.10;;
77573;SDS011;66710;48.868;9.080;2023-05-10T13:55:28;3.03;;;1.20;;
77573;SDS011;66710;48.868;9.080;2023-05-10T13:57:54;2.00;;;1.33;;
77573;SDS011;66710;48.868;9.080;2023-05-10T14:00:19;1.10;;;0.90;;
77573;SDS011;66710;48.868;9.080;2023-05-10T14:02:44;2.00;;;1.23;;
77573;SDS011;66710;48.868;9.080;2023-05-10T14:05:10;1.17;;;0.90;;
77573;SDS011;66710;48.868;9.080;2023-05-10T14:07:35;1.75;;;1.20;;
77573;SDS011;66710;48.868;9.080;2023-05-10T14:10:00;1.38;;;0.90;;
77573;SDS011;66710;48.868;9.080;2023-05-10T14:12:26;1.13;;;0.75;;
77573;SDS011;66710;48.868;9.080;2023-05-10T14:14:52;2.10;;;1.00;;
77573;SDS011;66710;48.868;9.080;2023-05-10T14:17:17;3.00;;;0.95;;
77573;SDS011;66710;48.868;9.080;2023-05-10T14:19:42;2.47;;;1.02;;
77573;SDS011;66710;48.868;9.080;2023-05-10T14:22:08;1.25;;;0.98;;
77573;SDS011;66710;48.868;9.080;2023-05-10T14:24:33;3.55;;;1.30;;
77573;SDS011;66710;48.868;9.080;2023-05-10T14:26:58;1.52;;;1.10;;
77573;SDS011;66710;48.868;9.080;2023-05-10T14:29:23;1.85;;;1.10;;
77573;SDS011;66710;48.868;9.080;2023-05-10T14:31:49;1.77;;;0.90;;
77573;SDS011;66710;48.868;9.080;2023-05-10T14:34:14;1.25;;;1.10;;
77573;SDS011;66710;48.868;9.080;2023-05-10T14:36:40;2.35;;;1.20;;
77573;SDS011;66710;48.868;9.080;2023-05-10T14:39:05;1.65;;;1.15;;
77573;SDS011;66710;48.868;9.080;2023-05-10T14:41:31;2.65;;;1.20;;
77573;SDS011;66710;48.868;9.080;2023-05-10T14:43:57;1.98;;;1.25;;
77573;SDS011;66710;48.868;9.080;2023-05-10T14:46:22;2.28;;;1.10;;
77573;SDS011;66710;48.868;9.080;2023-05-10T14:48:47;1.70;;;1.10;;
77573;SDS011;66710;48.868;9.080;2023-05-10T14:51:12;2.15;;;1.20;;
77573;SDS011;66710;48.868;9.080;2023-05-10T14:53:38;2.45;;;1.10;;
77573;SDS011;66710;48.868;9.080;2023-05-10T14:56:03;1.70;;;1.10;;
77573;SDS011;66710;48.868;9.080;2023-05-10T14:58:28;1.48;;;1.20;;
77573;SDS011;66710;48.868;9.080;2023-05-10T15:00:55;2.70;;;1.20;;
77573;SDS011;66710;48.868;9.080;2023-05-10T15:03:21;1.98;;;1.10;;
77573;SDS011;66710;48.868;9.080;2023-05-10T15:05:47;3.17;;;1.20;;
77573;SDS011;66710;48.868;9.080;2023-05-10T15:08:12;1.75;;;1.10;;
77573;SDS011;66710;48.868;9.080;2023-05-10T15:10:38;2.47;;;1.10;;
77573;SDS011;66710;48.868;9.080;2023-05-10T15:13:03;1.55;;;1.10;;
77573;SDS011;66710;48.868;9.080;2023-05-10T15:15:29;1.83;;;1.02;;
77573;SDS011;66710;48.868;9.080;2023-05-10T15:17:55;1.02;;;0.90;;
77573;SDS011;66710;48.868;9.080;2023-05-10T15:20:20;1.10;;;1.10;;
77573;SDS011;66710;48.868;9.080;2023-05-10T15:22:46;1.98;;;1.08;;